createdAt,value
2023-03-26T00:01:29.789Z,66.10
2023-03-26T00:03:58.638Z,66.10
2023-03-26T00:06:28.923Z,66.20
2023-03-26T00:08:58.356Z,66.30
2023-03-26T00:11:27.921Z,66.40
2023-03-26T00:13:57.831Z,66.80
2023-03-26T00:16:28.868Z,66.90
2023-03-26T00:18:57.749Z,67.20
2023-03-26T00:21:29.375Z,67.50
2023-03-26T00:24:06.278Z,67.60
2023-03-26T00:26:35.819Z,67.70
2023-03-26T00:29:04.147Z,67.80
2023-03-26T00:31:31.877Z,67.80
2023-03-26T00:33:59.605Z,67.80
2023-03-26T00:36:27.001Z,68.00
2023-03-26T00:38:55.262Z,68.00
2023-03-26T00:41:31.166Z,68.10
2023-03-26T00:44:00.100Z,68.20
2023-03-26T00:46:29.489Z,68.20
2023-03-26T00:48:59.101Z,68.50
2023-03-26T00:51:27.938Z,68.50
2023-03-26T00:53:55.124Z,68.60
2023-03-26T00:56:22.170Z,68.60
2023-03-26T00:58:50.304Z,68.80
2023-03-26T01:01:21.642Z,68.70
2023-03-26T01:04:06.741Z,69.00
2023-03-26T01:06:39.022Z,68.90
2023-03-26T01:09:20.126Z,69.60
2023-03-26T01:11:48.894Z,69.00
2023-03-26T01:14:23.700Z,68.90
2023-03-26T01:16:55.311Z,68.90
2023-03-26T01:19:49.653Z,68.80
2023-03-26T01:22:25.641Z,68.80
2023-03-26T01:24:54.175Z,68.90
2023-03-26T01:27:46.202Z,68.90
2023-03-26T01:30:15.929Z,68.90
2023-03-26T01:33:18.718Z,68.90
2023-03-26T01:35:51.640Z,68.90
2023-03-26T01:38:35.698Z,68.90
2023-03-26T01:41:05.581Z,68.90
2023-03-26T01:43:44.716Z,69.00
2023-03-26T01:46:14.812Z,69.00
2023-03-26T01:48:45.097Z,69.20
2023-03-26T01:51:13.700Z,69.20
2023-03-26T01:53:46.170Z,69.20
2023-03-26T01:56:21.439Z,69.30
2023-03-26T01:59:04.465Z,69.30
2023-03-26T02:01:45.141Z,69.40
2023-03-26T02:04:14.969Z,69.30
2023-03-26T02:07:40.658Z,69.20
2023-03-26T02:10:14.352Z,69.00
2023-03-26T02:12:43.061Z,69.00
2023-03-26T02:15:11.739Z,68.90
2023-03-26T02:17:41.841Z,68.90
2023-03-26T02:20:14.409Z,68.90
2023-03-26T02:22:46.054Z,68.90
2023-03-26T02:25:16.263Z,68.80
2023-03-26T02:27:44.145Z,68.80
2023-03-26T02:30:17.929Z,68.70
2023-03-26T02:32:44.947Z,68.70
2023-03-26T02:35:12.914Z,69.40
2023-03-26T02:37:42.197Z,68.50
2023-03-26T02:40:11.727Z,68.50
2023-03-26T02:42:39.277Z,68.50
2023-03-26T02:45:07.067Z,68.50
2023-03-26T02:47:34.224Z,68.50
2023-03-26T02:50:01.578Z,68.60
2023-03-26T02:52:28.695Z,69.40
2023-03-26T02:54:56.241Z,68.70
2023-03-26T02:57:24.286Z,68.60
2023-03-26T02:59:52.921Z,68.80
2023-03-26T03:02:22.927Z,68.90
2023-03-26T03:04:50.124Z,69.00
2023-03-26T03:07:17.320Z,69.10
2023-03-26T03:09:44.263Z,69.10
2023-03-26T03:12:11.214Z,69.10
2023-03-26T03:14:38.164Z,69.20
2023-03-26T03:17:05.282Z,69.20
2023-03-26T03:19:32.259Z,69.30
2023-03-26T03:21:59.265Z,69.30
2023-03-26T03:24:27.235Z,69.30
2023-03-26T03:26:56.903Z,69.40
2023-03-26T03:29:24.011Z,69.40
2023-03-26T03:31:51.000Z,69.50
2023-03-26T03:34:18.022Z,69.50
2023-03-26T03:36:48.770Z,69.40
2023-03-26T03:39:15.954Z,69.50
2023-03-26T03:41:42.899Z,69.60
2023-03-26T03:44:09.759Z,69.60
2023-03-26T03:46:36.710Z,69.70
2023-03-26T03:49:03.950Z,69.80
2023-03-26T03:51:31.238Z,69.70
2023-03-26T03:53:58.162Z,69.80
2023-03-26T03:56:26.180Z,69.80
2023-03-26T03:58:53.239Z,69.90
2023-03-26T04:01:22.729Z,69.80
2023-03-26T04:03:49.942Z,69.80
2023-03-26T04:06:18.861Z,69.80
2023-03-26T04:08:46.454Z,69.90
2023-03-26T04:11:14.458Z,69.90
2023-03-26T04:13:41.510Z,69.80
2023-03-26T04:16:09.033Z,69.90
2023-03-26T04:18:37.554Z,70.00
2023-03-26T04:21:05.339Z,70.70
2023-03-26T04:23:32.369Z,70.00
2023-03-26T04:26:04.275Z,69.90
2023-03-26T04:28:42.540Z,70.00
2023-03-26T04:31:15.745Z,70.00
2023-03-26T04:33:48.929Z,70.70
2023-03-26T04:36:16.721Z,70.10
2023-03-26T04:38:46.147Z,70.00
2023-03-26T04:41:13.778Z,70.10
2023-03-26T04:43:47.514Z,70.00
2023-03-26T04:46:14.934Z,70.10
2023-03-26T04:48:41.894Z,70.10
2023-03-26T04:51:10.117Z,70.10
2023-03-26T04:53:37.335Z,70.20
2023-03-26T04:56:13.785Z,70.20
2023-03-26T04:58:40.761Z,70.10
2023-03-26T05:01:11.145Z,70.10
2023-03-26T05:03:41.386Z,70.10
2023-03-26T05:06:12.096Z,70.10
2023-03-26T05:08:39.060Z,70.10
2023-03-26T05:11:11.601Z,70.00
2023-03-26T05:13:39.661Z,70.10
2023-03-26T05:16:06.946Z,70.00
2023-03-26T05:18:33.994Z,70.00
2023-03-26T05:21:01.208Z,69.90
2023-03-26T05:23:28.220Z,69.90
2023-03-26T05:25:55.320Z,69.90
2023-03-26T05:28:24.735Z,69.80
2023-03-26T05:30:53.585Z,69.70
2023-03-26T05:33:22.046Z,69.60
2023-03-26T05:36:01.548Z,69.50
2023-03-26T05:38:30.489Z,69.50
2023-03-26T05:41:02.718Z,69.30
2023-03-26T05:43:30.114Z,69.00
2023-03-26T05:45:57.303Z,68.90
2023-03-26T05:48:25.445Z,69.00
2023-03-26T05:50:57.650Z,69.10
2023-03-26T05:53:26.968Z,69.20
2023-03-26T05:56:00.925Z,69.50
2023-03-26T05:58:30.308Z,69.50
2023-03-26T06:01:19.673Z,69.80
2023-03-26T06:03:47.320Z,69.90
2023-03-26T06:06:17.054Z,69.90
2023-03-26T06:08:46.924Z,69.80
2023-03-26T06:11:14.015Z,70.70
2023-03-26T06:13:41.517Z,69.80
2023-03-26T06:16:09.918Z,69.80
2023-03-26T06:18:56.678Z,69.80
2023-03-26T06:21:28.837Z,69.70
2023-03-26T06:23:56.488Z,69.80
2023-03-26T06:26:23.644Z,69.90
2023-03-26T06:28:50.546Z,70.00
2023-03-26T06:31:19.311Z,70.00
2023-03-26T06:33:47.071Z,70.00
2023-03-26T06:36:14.207Z,70.00
2023-03-26T06:38:41.441Z,70.00
2023-03-26T06:41:08.458Z,70.10
2023-03-26T06:43:36.369Z,70.10
2023-03-26T06:46:04.334Z,70.30
2023-03-26T06:48:31.852Z,70.20
2023-03-26T06:50:59.112Z,70.30
2023-03-26T06:53:26.126Z,70.30
2023-03-26T06:55:54.201Z,70.30
2023-03-26T06:58:21.493Z,70.20
2023-03-26T07:00:48.527Z,70.20
2023-03-26T07:03:17.377Z,70.20
2023-03-26T07:05:44.395Z,70.30
2023-03-26T07:08:11.388Z,70.20
2023-03-26T07:10:38.484Z,70.30
2023-03-26T07:13:05.710Z,70.20
2023-03-26T07:15:32.914Z,70.20
2023-03-26T07:17:59.856Z,70.20
2023-03-26T07:20:27.098Z,70.20
2023-03-26T07:22:54.575Z,70.20
2023-03-26T07:25:22.019Z,70.40
2023-03-26T07:28:24.300Z,70.40
2023-03-26T07:31:06.128Z,70.30
2023-03-26T07:33:42.028Z,70.30
2023-03-26T07:36:25.381Z,70.30
2023-03-26T07:38:55.602Z,70.30
2023-03-26T07:41:45.930Z,70.10
2023-03-26T07:44:55.681Z,70.00
2023-03-26T07:47:30.283Z,69.90
2023-03-26T07:49:58.018Z,70.00
2023-03-26T07:52:26.606Z,70.10
2023-03-26T07:54:54.030Z,70.10
2023-03-26T07:57:48.298Z,70.30
2023-03-26T08:00:22.235Z,70.40
2023-03-26T08:03:01.759Z,70.50
2023-03-26T08:05:36.301Z,70.60
2023-03-26T08:08:19.761Z,70.80
2023-03-26T08:11:11.496Z,70.80
2023-03-26T08:13:57.586Z,70.80
2023-03-26T08:16:29.063Z,70.90
2023-03-26T08:19:10.853Z,70.80
2023-03-26T08:22:02.249Z,70.80
2023-03-26T08:24:47.710Z,70.70
2023-03-26T08:27:27.751Z,70.80
2023-03-26T08:30:04.761Z,71.00
2023-03-26T08:32:32.245Z,71.00
2023-03-26T08:35:00.315Z,71.00
2023-03-26T08:37:27.788Z,71.50
2023-03-26T08:39:54.858Z,71.10
2023-03-26T08:42:24.505Z,71.10
2023-03-26T08:45:21.686Z,71.20
2023-03-26T08:48:22.721Z,71.20
2023-03-26T08:51:19.583Z,71.20
2023-03-26T08:54:28.506Z,71.50
2023-03-26T08:57:18.649Z,71.40
2023-03-26T08:59:57.650Z,71.50
2023-03-26T09:02:42.774Z,71.60
2023-03-26T09:05:35.442Z,71.70
2023-03-26T09:08:36.836Z,72.00
2023-03-26T09:11:09.726Z,71.80
2023-03-26T09:14:14.431Z,71.90
2023-03-26T09:17:00.279Z,72.00
2023-03-26T09:19:36.746Z,72.00
2023-03-26T09:22:42.004Z,72.00
2023-03-26T09:25:21.841Z,72.30
2023-03-26T09:27:48.885Z,72.40
2023-03-26T09:30:37.128Z,72.20
2023-03-26T09:33:05.604Z,72.30
2023-03-26T09:36:10.587Z,72.30
2023-03-26T09:38:48.710Z,72.60
2023-03-26T09:41:18.774Z,72.50
2023-03-26T09:44:21.657Z,72.60
2023-03-26T09:47:27.328Z,72.80
2023-03-26T09:50:01.180Z,72.80
2023-03-26T09:52:58.562Z,72.70
2023-03-26T09:55:40.891Z,72.60
2023-03-26T09:58:45.273Z,72.60
2023-03-26T10:01:42.501Z,72.80
2023-03-26T10:04:43.788Z,72.80
2023-03-26T10:07:44.922Z,72.70
2023-03-26T10:10:42.838Z,72.70
2023-03-26T10:13:37.885Z,72.50
2023-03-26T10:16:13.765Z,72.60
2023-03-26T10:19:02.049Z,72.70
2023-03-26T10:21:45.501Z,72.90
2023-03-26T10:24:30.634Z,72.80
2023-03-26T10:27:26.587Z,72.90
2023-03-26T10:30:15.430Z,72.80
2023-03-26T10:33:18.940Z,72.80
2023-03-26T10:36:15.008Z,72.70
2023-03-26T10:38:53.915Z,72.90
2023-03-26T10:41:35.917Z,72.90
2023-03-26T10:44:21.912Z,72.90
2023-03-26T10:47:16.544Z,72.80
2023-03-26T10:50:23.124Z,72.70
2023-03-26T10:53:26.835Z,72.80
2023-03-26T10:56:06.933Z,72.70
2023-03-26T10:58:46.071Z,72.70
2023-03-26T11:01:46.823Z,72.60
2023-03-26T11:04:31.636Z,72.70
2023-03-26T11:07:41.022Z,72.60
2023-03-26T11:10:25.088Z,72.50
2023-03-26T11:13:47.874Z,72.50
2023-03-26T11:16:56.552Z,72.70
2023-03-26T11:20:05.302Z,72.80
2023-03-26T11:23:24.544Z,72.80
2023-03-26T11:26:18.526Z,72.80
2023-03-26T11:29:32.135Z,72.60
2023-03-26T11:32:41.366Z,72.50
2023-03-26T11:35:40.993Z,72.50
2023-03-26T11:38:32.949Z,72.50
2023-03-26T11:41:23.643Z,72.50
2023-03-26T11:44:21.793Z,72.60
2023-03-26T11:47:12.254Z,72.60
2023-03-26T11:50:02.251Z,72.60
2023-03-26T11:52:49.725Z,72.60
2023-03-26T11:55:39.905Z,72.80
2023-03-26T11:58:54.939Z,72.80
2023-03-26T12:02:03.441Z,72.90
2023-03-26T12:04:55.327Z,72.70
2023-03-26T12:08:18.071Z,72.80
2023-03-26T12:11:11.667Z,72.80
2023-03-26T12:14:05.001Z,72.80
2023-03-26T12:17:08.120Z,72.90
2023-03-26T12:19:55.388Z,73.00
2023-03-26T12:22:44.649Z,72.90
2023-03-26T12:25:35.638Z,72.90
2023-03-26T12:28:23.433Z,73.70
2023-03-26T12:31:18.290Z,72.90
2023-03-26T12:34:15.614Z,72.90
2023-03-26T12:37:00.998Z,73.00
2023-03-26T12:40:09.108Z,73.00
2023-03-26T12:44:50.336Z,72.80
2023-03-26T12:45:37.162Z,72.80
2023-03-26T12:48:04.767Z,72.80
2023-03-26T12:51:16.322Z,72.50
2023-03-26T12:53:43.291Z,72.50
2023-03-26T12:56:17.638Z,72.10
2023-03-26T12:59:09.221Z,72.10
2023-03-26T13:01:55.882Z,72.00
2023-03-26T13:04:43.621Z,72.10
2023-03-26T13:07:51.147Z,72.30
2023-03-26T13:10:55.916Z,72.40
2023-03-26T13:13:26.435Z,72.30
2023-03-26T13:16:04.893Z,72.40
2023-03-26T13:19:09.237Z,72.30
2023-03-26T13:21:51.253Z,72.40
2023-03-26T13:24:24.197Z,72.30
2023-03-26T13:26:54.171Z,72.30
2023-03-26T13:29:59.324Z,72.10
2023-03-26T13:32:57.498Z,72.10
2023-03-26T13:35:35.109Z,72.10
2023-03-26T13:38:11.667Z,72.00
2023-03-26T13:41:00.317Z,71.90
2023-03-26T13:43:32.970Z,71.90
2023-03-26T13:46:20.797Z,72.00
2023-03-26T13:49:04.850Z,71.70
2023-03-26T13:51:41.917Z,71.70
2023-03-26T13:54:24.192Z,71.50
2023-03-26T13:57:01.814Z,71.70
2023-03-26T13:59:54.760Z,71.30
2023-03-26T14:02:38.445Z,71.20
2023-03-26T14:05:21.532Z,71.10
2023-03-26T14:08:14.025Z,71.30
2023-03-26T14:10:48.478Z,71.50
2023-03-26T14:13:41.960Z,71.60
2023-03-26T14:16:20.788Z,71.50
2023-03-26T14:19:18.165Z,71.50
2023-03-26T14:21:55.097Z,71.50
2023-03-26T14:25:01.964Z,71.50
2023-03-26T14:27:52.065Z,71.40
2023-03-26T14:30:49.030Z,71.40
2023-03-26T14:33:28.121Z,71.40
2023-03-26T14:35:55.438Z,71.10
2023-03-26T14:38:49.564Z,71.20
2023-03-26T14:41:23.215Z,71.40
2023-03-26T14:43:53.162Z,71.20
2023-03-26T14:46:50.978Z,71.20
2023-03-26T14:50:04.391Z,71.10
2023-03-26T14:52:51.964Z,70.80
2023-03-26T14:55:49.385Z,71.00
2023-03-26T14:58:41.270Z,71.00
2023-03-26T15:01:27.873Z,71.20
2023-03-26T15:04:37.056Z,71.40
2023-03-26T15:07:55.975Z,71.50
2023-03-26T15:11:13.297Z,71.30
2023-03-26T15:14:21.672Z,71.10
2023-03-26T15:17:44.281Z,71.00
2023-03-26T15:20:50.075Z,70.90
2023-03-26T15:23:48.414Z,71.10
2023-03-26T15:27:01.634Z,71.20
2023-03-26T15:30:07.350Z,71.40
2023-03-26T15:33:14.615Z,71.20
2023-03-26T15:36:09.361Z,71.40
2023-03-26T15:39:23.566Z,71.50
2023-03-26T15:42:30.350Z,71.60
2023-03-26T15:45:31.940Z,71.80
2023-03-26T15:48:43.963Z,71.90
2023-03-26T15:51:46.965Z,72.10
2023-03-26T15:54:50.139Z,72.10
2023-03-26T15:57:48.768Z,72.30
2023-03-26T16:00:42.813Z,72.40
2023-03-26T16:03:43.206Z,72.30
2023-03-26T16:06:41.657Z,72.50
2023-03-26T16:09:42.108Z,72.40
2023-03-26T16:12:37.657Z,72.60
2023-03-26T16:15:33.374Z,72.50
2023-03-26T16:18:37.514Z,72.60
2023-03-26T16:21:36.782Z,72.80
2023-03-26T16:24:36.116Z,72.70
2023-03-26T16:27:30.083Z,72.50
2023-03-26T16:30:30.426Z,72.60
2023-03-26T16:33:21.214Z,72.40
2023-03-26T16:36:34.837Z,72.30
2023-03-26T16:39:44.249Z,72.20
2023-03-26T16:42:38.550Z,72.00
2023-03-26T16:45:56.474Z,71.90
2023-03-26T16:48:54.959Z,71.80
2023-03-26T16:52:01.047Z,71.60
2023-03-26T16:55:01.260Z,71.40
2023-03-26T16:58:27.953Z,71.40
2023-03-26T17:01:27.330Z,71.40
2023-03-26T17:04:27.372Z,71.30
2023-03-26T17:07:29.599Z,71.30
2023-03-26T17:10:33.532Z,71.30
2023-03-26T17:13:37.930Z,71.30
2023-03-26T17:16:34.264Z,71.50
2023-03-26T17:19:44.765Z,71.50
2023-03-26T17:22:38.190Z,71.30
2023-03-26T17:26:19.523Z,71.00
2023-03-26T17:29:23.725Z,70.90
2023-03-26T17:32:15.165Z,70.90
2023-03-26T17:35:04.447Z,70.80
2023-03-26T17:37:52.456Z,70.70
2023-03-26T17:40:54.807Z,70.60
2023-03-26T17:43:44.481Z,70.50
2023-03-26T17:46:37.757Z,69.90
2023-03-26T17:49:31.260Z,69.50
2023-03-26T17:52:29.929Z,69.00
2023-03-26T17:55:38.814Z,68.60
2023-03-26T17:58:35.707Z,68.10
2023-03-26T18:01:34.585Z,68.00
2023-03-26T18:04:31.465Z,67.60
2023-03-26T18:07:40.244Z,67.40
2023-03-26T18:11:01.500Z,66.90
2023-03-26T18:14:18.032Z,66.50
2023-03-26T18:17:06.555Z,66.70
2023-03-26T18:20:02.359Z,66.10
2023-03-26T18:22:51.748Z,65.70
2023-03-26T18:25:41.112Z,65.60
2023-03-26T18:28:39.274Z,65.30
2023-03-26T18:31:27.298Z,65.00
2023-03-26T18:34:19.520Z,64.60
2023-03-26T18:37:27.336Z,64.50
2023-03-26T18:40:20.230Z,64.40
2023-03-26T18:43:28.849Z,64.00
2023-03-26T18:46:24.118Z,63.90
2023-03-26T18:49:14.844Z,63.80
2023-03-26T18:52:02.292Z,63.70
2023-03-26T18:54:53.729Z,63.70
2023-03-26T18:57:43.399Z,63.80
2023-03-26T19:00:31.818Z,64.10
2023-03-26T19:03:24.401Z,64.30
2023-03-26T19:06:14.850Z,64.30
2023-03-26T19:09:23.825Z,64.20
2023-03-26T19:12:25.185Z,63.90
2023-03-26T19:15:16.027Z,63.40
2023-03-26T19:18:09.801Z,63.10
2023-03-26T19:21:04.628Z,63.00
2023-03-26T19:23:53.214Z,62.40
2023-03-26T19:26:40.568Z,62.30
2023-03-26T19:29:31.614Z,62.00
2023-03-26T19:32:27.731Z,61.80
2023-03-26T19:35:21.725Z,61.50
2023-03-26T19:38:22.787Z,62.10
2023-03-26T19:41:25.010Z,61.00
2023-03-26T19:44:26.544Z,61.00
2023-03-26T19:47:18.756Z,60.50
2023-03-26T19:50:26.359Z,60.30
2023-03-26T19:53:17.888Z,59.60
2023-03-26T19:56:08.187Z,59.50
2023-03-26T19:58:56.422Z,59.40
2023-03-26T20:01:43.823Z,59.20
2023-03-26T20:04:33.047Z,58.90
2023-03-26T20:07:35.630Z,59.50
2023-03-26T20:10:23.952Z,58.60
2023-03-26T20:13:16.360Z,58.50
2023-03-26T20:16:27.532Z,58.40
2023-03-26T20:19:15.345Z,58.10
2023-03-26T20:22:02.944Z,58.20
2023-03-26T20:24:51.708Z,58.20
2023-03-26T20:27:39.056Z,58.10
2023-03-26T20:30:37.275Z,57.60
2023-03-26T20:33:27.091Z,57.70
2023-03-26T20:36:34.214Z,57.60
2023-03-26T20:39:24.223Z,57.40
2023-03-26T20:42:15.821Z,57.40
2023-03-26T20:45:14.587Z,57.30
2023-03-26T20:48:02.884Z,57.10
2023-03-26T20:50:50.903Z,57.00
2023-03-26T20:53:38.272Z,56.60
2023-03-26T20:56:25.527Z,57.00
2023-03-26T20:59:17.963Z,56.80
2023-03-26T21:02:05.354Z,56.50
2023-03-26T21:04:53.938Z,56.50
2023-03-26T21:07:45.210Z,56.60
2023-03-26T21:10:34.435Z,56.50
2023-03-26T21:13:33.585Z,56.30
2023-03-26T21:16:21.993Z,56.10
2023-03-26T21:19:10.560Z,56.30
2023-03-26T21:22:27.863Z,57.00
2023-03-26T21:25:40.681Z,56.50
2023-03-26T21:28:35.721Z,56.40
2023-03-26T21:31:31.048Z,56.40
2023-03-26T21:34:19.976Z,56.40
2023-03-26T21:37:08.033Z,56.40
2023-03-26T21:39:55.936Z,56.30
2023-03-26T21:42:51.186Z,56.60
2023-03-26T21:45:39.439Z,57.40
2023-03-26T21:48:28.486Z,56.80
2023-03-26T21:51:19.039Z,56.90
2023-03-26T21:54:27.202Z,56.70
2023-03-26T21:57:32.339Z,56.90
2023-03-26T22:00:28.221Z,56.80
2023-03-26T22:03:41.026Z,56.60
2023-03-26T22:06:54.725Z,57.00
2023-03-26T22:09:43.392Z,56.90
2023-03-26T22:12:30.664Z,56.80
2023-03-26T22:15:18.662Z,56.80
2023-03-26T22:18:07.268Z,56.80
2023-03-26T22:20:54.870Z,56.80
2023-03-26T22:23:42.379Z,56.70
2023-03-26T22:26:31.433Z,56.80
2023-03-26T22:29:18.705Z,56.70
2023-03-26T22:32:06.424Z,56.70
2023-03-26T22:34:53.867Z,57.00
2023-03-26T22:37:41.635Z,57.00
2023-03-26T22:40:29.058Z,57.20
2023-03-26T22:43:16.561Z,57.10
2023-03-26T22:46:05.257Z,57.10
2023-03-26T22:48:52.721Z,57.20
2023-03-26T22:51:39.941Z,57.20
2023-03-26T22:54:27.373Z,57.30
2023-03-26T22:57:16.081Z,57.30
2023-03-26T23:00:14.532Z,57.40
2023-03-26T23:03:01.976Z,57.40
2023-03-26T23:06:04.675Z,57.60
2023-03-26T23:08:52.150Z,57.50
2023-03-26T23:11:39.857Z,57.40
2023-03-26T23:14:28.682Z,57.50
2023-03-26T23:17:16.000Z,57.60
2023-03-26T23:20:11.454Z,57.50
2023-03-26T23:22:58.748Z,57.50
2023-03-26T23:25:46.855Z,57.40
2023-03-26T23:28:35.138Z,57.40
2023-03-26T23:31:25.352Z,57.40
2023-03-26T23:34:13.632Z,57.50
2023-03-26T23:37:01.239Z,57.60
2023-03-26T23:39:51.618Z,57.40
2023-03-26T23:42:38.866Z,57.40
2023-03-26T23:45:26.155Z,57.30
2023-03-26T23:48:17.387Z,57.20
2023-03-26T23:51:04.940Z,57.10
2023-03-26T23:53:52.776Z,57.00
2023-03-26T23:56:40.075Z,57.20
2023-03-26T23:59:28.194Z,57.20
